N973SE ENBO-ENVA
Flight info
| Callsign | N973SE |
|---|---|
| Flight time | N/A |
| Altitude | 22000 |
| Route | DISMU DCT NUPGO |
| Aircraft | C414/L-SBDFGRY/S |
Departure
| Time | 2026-04-28 08:07 |
|---|---|
| Airport | Bodø Airport (ENBO) |
Arrival
| Time | N/A |
|---|---|
| Airport | Trondheim Airport, Værnes (ENVA) |
| Time | Latitude | Longitude | Altitude | Speed | Heading |
|---|---|---|---|---|---|
| 2026-04-28 07:54 | 67.27121 | 14.35954 | 34 ft | 0 kts | 120° |
| 2026-04-28 08:03 | 67.27118 | 14.35967 | 34 ft | 4 kts | 119° |
| 2026-04-28 08:03 | 67.27090 | 14.36089 | 34 ft | 11 kts | 125° |
| 2026-04-28 08:03 | 67.27038 | 14.36216 | 35 ft | 11 kts | 103° |
| 2026-04-28 08:04 | 67.27045 | 14.36444 | 35 ft | 15 kts | 82° |
| 2026-04-28 08:04 | 67.27066 | 14.36736 | 36 ft | 18 kts | 78° |
| 2026-04-28 08:04 | 67.27092 | 14.37086 | 37 ft | 21 kts | 77° |
| 2026-04-28 08:04 | 67.27120 | 14.37440 | 38 ft | 19 kts | 81° |
| 2026-04-28 08:05 | 67.27150 | 14.37736 | 39 ft | 16 kts | 76° |
| 2026-04-28 08:05 | 67.27163 | 14.37990 | 40 ft | 13 kts | 86° |
| 2026-04-28 08:05 | 67.27163 | 14.38215 | 40 ft | 13 kts | 94° |
| 2026-04-28 08:05 | 67.27119 | 14.38373 | 39 ft | 11 kts | 164° |
| 2026-04-28 08:06 | 67.27070 | 14.38303 | 40 ft | 2 kts | 261° |
| 2026-04-28 08:06 | 67.27050 | 14.38040 | 41 ft | 44 kts | 260° |
| 2026-04-28 08:06 | 67.26941 | 14.36775 | 53 ft | 93 kts | 257° |
| 2026-04-28 08:07 | 67.26795 | 14.35145 | 394 ft | 92 kts | 252° |
| 2026-04-28 08:07 | 67.26615 | 14.33349 | 545 ft | 120 kts | 256° |
| 2026-04-28 08:07 | 67.26458 | 14.31203 | 1104 ft | 118 kts | 259° |
| 2026-04-28 08:07 | 67.26323 | 14.29141 | 1626 ft | 116 kts | 259° |
| 2026-04-28 08:08 | 67.26189 | 14.27086 | 2035 ft | 117 kts | 259° |
| 2026-04-28 08:08 | 67.25975 | 14.25062 | 2431 ft | 118 kts | 241° |
| 2026-04-28 08:08 | 67.25363 | 14.23658 | 2821 ft | 121 kts | 210° |
| 2026-04-28 08:08 | 67.24617 | 14.22618 | 3216 ft | 122 kts | 212° |
| 2026-04-28 08:09 | 67.23895 | 14.21452 | 3619 ft | 123 kts | 215° |
| 2026-04-28 08:09 | 67.23189 | 14.20182 | 4016 ft | 124 kts | 218° |
| 2026-04-28 08:09 | 67.22495 | 14.18859 | 4413 ft | 124 kts | 220° |
| 2026-04-28 08:09 | 67.21809 | 14.17509 | 4822 ft | 124 kts | 221° |
| 2026-04-28 08:10 | 67.21127 | 14.16144 | 5234 ft | 124 kts | 221° |
| 2026-04-28 08:10 | 67.20444 | 14.14760 | 5609 ft | 126 kts | 222° |
| 2026-04-28 08:10 | 67.19749 | 14.13348 | 5980 ft | 129 kts | 222° |
| 2026-04-28 08:10 | 67.19037 | 14.11899 | 6357 ft | 131 kts | 223° |
| 2026-04-28 08:11 | 67.18315 | 14.10429 | 6728 ft | 134 kts | 223° |
| 2026-04-28 08:11 | 67.17578 | 14.08931 | 7082 ft | 136 kts | 223° |
| 2026-04-28 08:11 | 67.16830 | 14.07411 | 7433 ft | 138 kts | 223° |
| 2026-04-28 08:11 | 67.16070 | 14.05868 | 7788 ft | 140 kts | 224° |
| 2026-04-28 08:12 | 67.15561 | 14.04834 | 8013 ft | 142 kts | 224° |
| 2026-04-28 08:12 | 67.14514 | 14.02714 | 8496 ft | 144 kts | 224° |
| 2026-04-28 08:12 | 67.13989 | 14.01653 | 8722 ft | 146 kts | 224° |
| 2026-04-28 08:12 | 67.13186 | 14.00032 | 9080 ft | 148 kts | 224° |
| 2026-04-28 08:13 | 67.12375 | 13.98398 | 9431 ft | 149 kts | 225° |
| 2026-04-28 08:13 | 67.11551 | 13.96733 | 9790 ft | 151 kts | 225° |
| 2026-04-28 08:13 | 67.10635 | 13.95316 | 10143 ft | 158 kts | 204° |
| 2026-04-28 08:13 | 67.09561 | 13.94581 | 10472 ft | 161 kts | 198° |
| 2026-04-28 08:14 | 67.08471 | 13.93815 | 10805 ft | 162 kts | 199° |
| 2026-04-28 08:14 | 67.07378 | 13.93040 | 11128 ft | 164 kts | 199° |
| 2026-04-28 08:14 | 67.06275 | 13.92267 | 11461 ft | 165 kts | 199° |
| 2026-04-28 08:14 | 67.05152 | 13.91484 | 11797 ft | 166 kts | 200° |
| 2026-04-28 08:15 | 67.04034 | 13.90707 | 12130 ft | 167 kts | 200° |
| 2026-04-28 08:15 | 67.02905 | 13.89923 | 12466 ft | 168 kts | 200° |
| 2026-04-28 08:15 | 67.01773 | 13.89138 | 12799 ft | 170 kts | 200° |
| 2026-04-28 08:15 | 67.00631 | 13.88346 | 13135 ft | 171 kts | 200° |
| 2026-04-28 08:16 | 66.99478 | 13.87547 | 13488 ft | 172 kts | 200° |
| 2026-04-28 08:16 | 66.98332 | 13.86754 | 13831 ft | 173 kts | 201° |
| 2026-04-28 08:16 | 66.97166 | 13.85947 | 14218 ft | 174 kts | 201° |
| 2026-04-28 08:16 | 66.95986 | 13.85116 | 14454 ft | 177 kts | 200° |
| 2026-04-28 08:17 | 66.94800 | 13.84309 | 14802 ft | 175 kts | 200° |
| 2026-04-28 08:17 | 66.93614 | 13.83501 | 15119 ft | 177 kts | 200° |
| 2026-04-28 08:17 | 66.92430 | 13.82686 | 15448 ft | 177 kts | 200° |
| 2026-04-28 08:17 | 66.91241 | 13.81868 | 15766 ft | 177 kts | 200° |
| 2026-04-28 08:18 | 66.90000 | 13.81712 | 16077 ft | 182 kts | 174° |
| 2026-04-28 08:18 | 66.88737 | 13.82110 | 16366 ft | 183 kts | 174° |
| 2026-04-28 08:18 | 66.87462 | 13.82515 | 16667 ft | 185 kts | 174° |
| 2026-04-28 08:18 | 66.86188 | 13.82886 | 17034 ft | 184 kts | 175° |
| 2026-04-28 08:19 | 66.84900 | 13.83220 | 17333 ft | 186 kts | 176° |
| 2026-04-28 08:19 | 66.83607 | 13.83552 | 17685 ft | 187 kts | 175° |
| 2026-04-28 08:19 | 66.82310 | 13.83877 | 18007 ft | 187 kts | 176° |
| 2026-04-28 08:19 | 66.81012 | 13.84207 | 18379 ft | 187 kts | 175° |
| 2026-04-28 08:20 | 66.79708 | 13.84540 | 18687 ft | 189 kts | 175° |
| 2026-04-28 08:20 | 66.78392 | 13.84878 | 19006 ft | 191 kts | 175° |
| 2026-04-28 08:20 | 66.77065 | 13.85218 | 19305 ft | 192 kts | 176° |
| 2026-04-28 08:20 | 66.75738 | 13.85556 | 19553 ft | 193 kts | 176° |
| 2026-04-28 08:21 | 66.74392 | 13.85899 | 19852 ft | 196 kts | 176° |
| 2026-04-28 08:21 | 66.73032 | 13.86244 | 20099 ft | 197 kts | 176° |
| 2026-04-28 08:21 | 66.71659 | 13.86595 | 20384 ft | 199 kts | 176° |
| 2026-04-28 08:21 | 66.70269 | 13.86948 | 20693 ft | 201 kts | 176° |
| 2026-04-28 08:22 | 66.68870 | 13.87304 | 20983 ft | 203 kts | 176° |
| 2026-04-28 08:22 | 66.67458 | 13.87664 | 21255 ft | 205 kts | 176° |
| 2026-04-28 08:22 | 66.66034 | 13.88028 | 21557 ft | 207 kts | 176° |
| 2026-04-28 08:22 | 66.64612 | 13.88388 | 21834 ft | 208 kts | 176° |
| 2026-04-28 08:23 | 66.63145 | 13.88760 | 22118 ft | 211 kts | 176° |
| 2026-04-28 08:23 | 66.61699 | 13.89124 | 22385 ft | 212 kts | 176° |